Time;durP1;ratioP1;P1;durP2;ratioP2;P2;SDS_P1;SDS_P2;PMS_P1;PMS_P2;Temp;Humidity;BMP_temperature;BMP_pressure;BME280_temperature;BME280_humidity;BME280_pressure;Samples;Min_cycle;Max_cycle;Signal;HPM_P1;HPM_P2
2022/10/28 00:01:04;;;;;;;45.78;18.63;;;;;;;14.01;100.00;101544.09;4953720;29;20071;-63
2022/10/28 00:03:30;;;;;;;48.80;20.65;;;;;;;13.99;100.00;101538.88;4953070;28;20509;-63
2022/10/28 00:06:30;;;;;;;48.75;21.92;;;;;;;13.99;100.00;101538.88;4953484;29;20035;-63
2022/10/28 00:08:56;;;;;;;53.90;22.02;;;;;;;13.98;100.00;101523.69;4932142;29;20039;-63
2022/10/28 00:11:27;;;;;;;55.58;22.20;;;;;;;14.01;100.00;101522.47;4912991;29;20067;-63
2022/10/28 00:13:54;;;;;;;59.20;22.67;;;;;;;13.93;100.00;101512.63;4932060;29;20263;-63
2022/10/28 00:16:22;;;;;;;70.57;22.35;;;;;;;13.97;100.00;101515.75;4931834;29;20032;-63
2022/10/28 00:18:49;;;;;;;58.67;21.38;;;;;;;13.95;100.00;101513.28;4931920;29;20067;-63
2022/10/28 00:21:17;;;;;;;61.22;22.85;;;;;;;13.92;100.00;101502.03;4932001;29;20087;-63
2022/10/28 00:23:43;;;;;;;62.97;22.88;;;;;;;13.90;100.00;101501.38;4915950;29;20043;-63
2022/10/28 00:26:08;;;;;;;62.40;23.75;;;;;;;13.90;100.00;101501.38;4931911;29;20043;-63
2022/10/28 00:28:34;;;;;;;64.55;23.58;;;;;;;13.86;100.00;101473.91;4931959;29;20058;-63
2022/10/28 00:31:07;;;;;;;54.08;22.38;;;;;;;13.90;100.00;101456.22;4915934;29;20083;-63
2022/10/28 00:33:37;;;;;;;60.35;22.90;;;;;;;13.92;100.00;101439.81;4931573;29;20459;-63
2022/10/28 00:36:11;;;;;;;56.83;23.13;;;;;;;13.92;100.00;101431.69;4931476;29;20052;-63
2022/10/28 00:38:37;;;;;;;65.55;23.33;;;;;;;13.94;100.00;101426.88;4931860;29;20036;-63
2022/10/28 00:41:04;;;;;;;50.75;22.23;;;;;;;13.95;100.00;101420.47;4952285;29;20051;-63
2022/10/28 00:43:52;;;;;;;58.88;22.02;;;;;;;13.97;100.00;101410.25;4953088;29;20446;-63
2022/10/28 00:46:39;;;;;;;60.13;21.83;;;;;;;13.99;100.00;101408.19;4948299;29;20043;-63
2022/10/28 00:49:08;;;;;;;58.13;21.90;;;;;;;13.99;100.00;101406.28;4935721;29;20054;-63
2022/10/28 00:51:34;;;;;;;54.38;20.98;;;;;;;13.83;100.00;101375.06;4935659;29;20039;-63
2022/10/28 00:54:02;;;;;;;51.35;22.65;;;;;;;14.03;100.00;101404.84;4935896;29;20170;-63
2022/10/28 00:56:33;;;;;;;58.03;24.13;;;;;;;14.05;100.00;101402.75;4935581;29;20036;-63
2022/10/28 00:59:03;;;;;;;58.90;22.35;;;;;;;14.05;100.00;101397.34;4952826;29;20039;-63
2022/10/28 01:01:29;;;;;;;53.08;22.58;;;;;;;14.10;100.00;101403.00;4935885;29;20181;-63
2022/10/28 01:03:55;;;;;;;51.33;22.35;;;;;;;14.10;100.00;101397.59;4919874;29;20118;-63
2022/10/28 01:06:22;;;;;;;44.42;22.25;;;;;;;14.20;100.00;101388.19;4952797;29;20027;-63
2022/10/28 01:08:47;;;;;;;47.65;21.17;;;;;;;14.26;100.00;101390.06;4952845;29;20039;-62
2022/10/28 01:11:47;;;;;;;38.97;20.95;;;;;;;14.31;100.00;101390.28;4952800;29;20042;-63
2022/10/28 01:14:39;;;;;;;48.10;21.42;;;;;;;14.35;100.00;101386.09;4914829;28;20044;-63
2022/10/28 01:17:31;;;;;;;50.53;20.63;;;;;;;14.40;100.00;101380.06;4939047;29;20418;-63
2022/10/28 01:20:21;;;;;;;40.05;21.00;;;;;;;14.41;100.00;101387.97;4940977;29;20082;-63
2022/10/28 01:23:11;;;;;;;43.70;22.27;;;;;;;14.28;100.00;101374.47;4956434;29;20027;-63
2022/10/28 01:25:48;;;;;;;46.05;23.77;;;;;;;14.37;100.00;101383.16;4916809;29;20498;-62
2022/10/28 01:28:38;;;;;;;50.03;25.23;;;;;;;14.45;100.00;101394.63;4938976;29;20062;-63
2022/10/28 01:31:16;;;;;;;49.80;24.35;;;;;;;14.43;100.00;101391.28;4956347;29;20070;-63
2022/10/28 01:33:46;;;;;;;53.15;25.42;;;;;;;14.43;100.00;101379.63;4956285;29;20059;-63
2022/10/28 01:36:17;;;;;;;52.47;26.05;;;;;;;14.43;100.00;101368.81;4940344;29;20058;-63
2022/10/28 01:38:45;;;;;;;52.92;25.92;;;;;;;14.45;100.00;101369.44;4956245;29;20031;-63
2022/10/28 01:41:31;;;;;;;63.67;28.45;;;;;;;14.44;100.00;101354.25;4956161;29;20038;-63
2022/10/28 01:44:00;;;;;;;63.47;28.05;;;;;;;14.41;100.00;101355.50;4923790;29;20418;-63
2022/10/28 01:46:38;;;;;;;71.60;29.48;;;;;;;14.43;100.00;101353.38;4956296;28;20027;-63
2022/10/28 01:49:15;;;;;;;62.40;29.98;;;;;;;14.48;100.00;101356.31;4956075;29;20027;-63
2022/10/28 01:51:46;;;;;;;62.88;29.23;;;;;;;14.53;100.00;101348.38;4955945;29;20442;-63
2022/10/28 01:54:16;;;;;;;63.03;29.50;;;;;;;14.50;100.00;101351.56;4938722;29;20110;-63
2022/10/28 01:56:44;;;;;;;63.85;30.13;;;;;;;14.53;100.00;101359.22;4938924;29;20394;-63
2022/10/28 01:59:16;;;;;;;61.25;29.83;;;;;;;14.40;100.00;101337.56;4938600;29;20541;-63
2022/10/28 02:01:41;;;;;;;64.30;30.83;;;;;;;14.55;100.00;101356.31;4955640;29;20038;-63
2022/10/28 02:04:07;;;;;;;73.38;33.63;;;;;;;14.55;100.00;101351.72;4955872;28;20038;-63
2022/10/28 02:06:33;;;;;;;60.50;31.92;;;;;;;14.55;100.00;101343.59;4938553;29;20039;-63
2022/10/28 02:09:07;;;;;;;62.47;31.92;;;;;;;14.55;100.00;101338.19;4955655;28;20110;-63
2022/10/28 02:12:10;;;;;;;74.78;33.88;;;;;;;14.55;100.00;101324.66;4955613;28;20039;-63
2022/10/28 02:15:00;;;;;;;65.85;33.03;;;;;;;14.55;100.00;101313.00;4955659;29;20035;-63
2022/10/28 02:17:49;;;;;;;64.43;33.45;;;;;;;14.41;100.00;101285.09;4938124;29;20035;-62
2022/10/28 02:20:20;;;;;;;66.20;32.35;;;;;;;14.54;100.00;101305.91;4942496;29;20032;-63
2022/10/28 02:23:02;;;;;;;67.28;33.33;;;;;;;14.55;100.00;101294.03;4955539;29;20046;-63
2022/10/28 02:25:34;;;;;;;68.18;32.58;;;;;;;14.52;100.00;101300.69;4938054;28;20035;-63
2022/10/28 02:28:14;;;;;;;64.97;32.60;;;;;;;14.46;100.00;101276.31;4940102;29;20494;-63
2022/10/28 02:30:48;;;;;;;64.97;31.02;;;;;;;14.55;100.00;101291.31;4937956;29;20047;-63
2022/10/28 02:33:27;;;;;;;66.60;31.85;;;;;;;14.55;100.00;101281.31;4955317;29;20034;-63
2022/10/28 02:36:07;;;;;;;63.92;31.60;;;;;;;14.47;100.00;101277.97;4937762;29;20486;-62
2022/10/28 02:38:44;;;;;;;62.92;31.30;;;;;;;14.52;100.00;101278.22;4954937;29;20035;-63
2022/10/28 02:41:34;;;;;;;63.97;31.63;;;;;;;14.50;100.00;101281.16;4955090;29;20506;-63
2022/10/28 02:44:08;;;;;;;59.65;31.77;;;;;;;14.48;100.00;101271.53;4939945;29;20047;-62
2022/10/28 02:46:35;;;;;;;;;;;;;;;14.44;100.00;101262.19;4955496;28;20039;-63
2022/10/28 02:49:08;;;;;;;59.65;30.58;;;;;;;14.45;100.00;101255.72;4954890;29;20317;-62
2022/10/28 02:51:43;;;;;;;61.85;29.88;;;;;;;14.41;100.00;101260.72;4954962;29;20031;-63
2022/10/28 02:54:34;;;;;;;69.38;31.75;;;;;;;14.45;100.00;101258.41;4955073;29;20046;-63
2022/10/28 02:57:04;;;;;;;63.10;30.08;;;;;;;14.42;100.00;101251.53;4954486;29;20556;-63
2022/10/28 02:59:30;;;;;;;60.78;30.88;;;;;;;14.39;100.00;101254.69;4954614;29;20149;-63
2022/10/28 03:01:55;;;;;;;56.75;30.05;;;;;;;14.29;100.00;101251.59;4954714;29;20122;-63
2022/10/28 03:04:21;;;;;;;60.10;29.92;;;;;;;14.34;100.00;101257.22;4954640;28;20035;-62
2022/10/28 03:06:46;;;;;;;59.70;31.10;;;;;;;14.37;100.00;101255.94;4895167;29;20710;-63
2022/10/28 03:09:12;;;;;;;64.63;30.20;;;;;;;14.38;100.00;101253.03;4895398;29;20045;-63
2022/10/28 03:11:37;;;;;;;60.78;29.77;;;;;;;14.38;100.00;101252.19;4895105;29;20439;-63
2022/10/28 03:14:03;;;;;;;53.47;29.42;;;;;;;14.39;100.00;101261.97;4895398;29;20100;-63
2022/10/28 03:16:28;;;;;;;66.95;30.60;;;;;;;14.41;100.00;101254.47;4895357;29;20057;-63
2022/10/28 03:18:53;;;;;;;56.50;29.48;;;;;;;14.42;100.00;101251.53;4895099;29;20123;-62
2022/10/28 03:21:19;;;;;;;58.63;29.73;;;;;;;14.38;100.00;101247.59;4895107;29;20507;-62
2022/10/28 03:23:44;;;;;;;58.63;29.63;;;;;;;14.38;100.00;101254.91;4879527;29;20059;-63
2022/10/28 03:26:10;;;;;;;59.33;29.20;;;;;;;14.38;100.00;101253.03;4895060;29;20504;-63
2022/10/28 03:28:35;;;;;;;76.53;30.33;;;;;;;14.38;100.00;101250.31;4879620;29;20044;-63
2022/10/28 03:31:01;;;;;;;63.35;31.05;;;;;;;14.38;100.00;101247.59;4894924;29;20049;-62
2022/10/28 03:33:26;;;;;;;64.97;30.95;;;;;;;14.36;100.00;101246.16;4894953;29;20128;-63
2022/10/28 03:35:52;;;;;;;64.18;31.27;;;;;;;14.36;100.00;101236.16;4894700;29;20125;-63
2022/10/28 03:38:17;;;;;;;69.88;31.17;;;;;;;14.34;100.00;101238.25;4936380;28;20118;-63
2022/10/28 03:40:42;;;;;;;62.65;30.48;;;;;;;14.36;100.00;101235.31;4921020;29;20134;-63
2022/10/28 03:43:08;;;;;;;72.07;31.55;;;;;;;14.34;100.00;101238.25;4954123;29;20487;-63
2022/10/28 03:45:33;;;;;;;66.57;30.27;;;;;;;14.32;100.00;101241.16;4953969;29;20126;-63
2022/10/28 03:47:58;;;;;;;66.07;30.08;;;;;;;14.34;100.00;101239.09;4953863;29;20045;-63
2022/10/28 03:50:24;;;;;;;67.75;30.83;;;;;;;14.31;100.00;101236.81;4953913;28;20114;-64
2022/10/28 03:52:50;;;;;;;72.28;31.77;;;;;;;14.32;100.00;101235.75;4936529;29;20042;-63
2022/10/28 03:55:16;;;;;;;62.55;30.33;;;;;;;14.33;100.00;101245.53;4953859;29;20031;-63
2022/10/28 03:57:41;;;;;;;68.45;30.40;;;;;;;14.31;100.00;101238.69;4953641;29;20085;-63
2022/10/28 04:00:09;;;;;;;71.68;30.35;;;;;;;14.33;100.00;101234.69;4953689;29;20498;-63
2022/10/28 04:02:35;;;;;;;67.38;31.38;;;;;;;14.32;100.00;101240.34;4953690;28;20376;-62
2022/10/28 04:05:00;;;;;;;69.80;29.98;;;;;;;14.33;100.00;101239.28;4936424;29;20112;-63
2022/10/28 04:07:26;;;;;;;63.63;30.05;;;;;;;14.33;100.00;101236.56;4936399;29;20043;-62
2022/10/28 04:09:51;;;;;;;68.70;29.52;;;;;;;14.38;100.00;101231.38;4953288;29;20078;-62
2022/10/28 04:12:18;;;;;;;69.13;28.10;;;;;;;14.36;100.00;101225.31;4936507;29;20042;-63
2022/10/28 04:14:43;;;;;;;62.72;28.90;;;;;;;14.35;100.00;101231.78;4936332;29;20372;-62
2022/10/28 04:17:08;;;;;;;63.70;28.90;;;;;;;14.32;100.00;101219.50;4953460;29;20094;-63
2022/10/28 04:19:34;;;;;;;71.53;30.05;;;;;;;14.37;100.00;101228.84;4936238;29;20040;-63
2022/10/28 04:21:59;;;;;;;62.90;28.63;;;;;;;14.34;100.00;101219.31;4936223;29;20039;-63
2022/10/28 04:24:25;;;;;;;67.53;29.10;;;;;;;14.33;100.00;101218.44;4953480;28;20035;-63
2022/10/28 04:26:50;;;;;;;71.28;30.42;;;;;;;14.37;100.00;101216.19;4920461;29;20070;-63
2022/10/28 04:29:18;;;;;;;62.30;27.15;;;;;;;14.35;100.00;101215.56;4901594;29;20447;-63
2022/10/28 04:31:43;;;;;;;69.22;28.23;;;;;;;14.36;100.00;101208.25;4934789;29;20102;-63
2022/10/28 04:34:09;;;;;;;65.00;28.60;;;;;;;14.35;100.00;101196.59;4936537;29;20438;-63
2022/10/28 04:36:34;;;;;;;71.43;28.77;;;;;;;14.19;100.00;101162.72;4953441;29;20043;-63
2022/10/28 04:38:59;;;;;;;59.40;27.98;;;;;;;14.38;100.00;101198.88;4953105;29;20035;-63
2022/10/28 04:41:25;;;;;;;60.35;28.13;;;;;;;14.38;100.00;101192.63;4936362;29;20066;-62
2022/10/28 04:43:50;;;;;;;68.88;28.02;;;;;;;14.26;100.00;101182.47;4936236;29;20502;-62
2022/10/28 04:46:16;;;;;;;66.88;28.02;;;;;;;14.38;100.00;101198.88;4936045;29;20058;-62
2022/10/28 04:48:41;;;;;;;69.05;27.20;;;;;;;14.38;100.00;101201.59;4953041;29;20063;-62
2022/10/28 04:51:06;;;;;;;74.65;27.25;;;;;;;14.38;100.00;101201.59;4935820;29;20423;-62
2022/10/28 04:53:32;;;;;;;63.08;26.27;;;;;;;14.39;100.00;101191.59;4952975;29;20082;-63
2022/10/28 04:55:58;;;;;;;63.63;26.80;;;;;;;14.39;100.00;101205.94;4935612;29;20035;-63
2022/10/28 04:58:24;;;;;;;75.40;28.55;;;;;;;14.41;100.00;101201.16;4935716;29;20129;-64
2022/10/28 05:00:50;;;;;;;64.63;27.27;;;;;;;14.28;100.00;101172.25;4952968;29;20035;-63
2022/10/28 05:03:15;;;;;;;67.20;27.98;;;;;;;14.36;100.00;101181.19;4952991;29;20074;-62
2022/10/28 05:05:41;;;;;;;52.33;27.35;;;;;;;14.48;100.00;101203.84;4936148;29;20505;-63
2022/10/28 05:08:09;;;;;;;61.83;26.15;;;;;;;14.48;100.00;101193.84;4935588;28;20103;-63
2022/10/28 05:10:34;;;;;;;61.38;27.13;;;;;;;14.51;100.00;101192.63;4920408;29;20082;-62
2022/10/28 05:12:59;;;;;;;61.55;28.15;;;;;;;14.54;100.00;101187.59;4916490;29;20040;-63
2022/10/28 05:15:25;;;;;;;62.70;27.85;;;;;;;14.41;100.00;101170.56;4948945;29;20051;-63
2022/10/28 05:17:53;;;;;;;67.78;28.23;;;;;;;14.56;100.00;101187.38;4935789;29;20042;-63
2022/10/28 05:20:19;;;;;;;70.32;28.88;;;;;;;14.54;100.00;101190.31;4935723;29;20053;-62
2022/10/28 05:22:53;;;;;;;58.53;26.98;;;;;;;14.57;100.00;101194.47;4952793;29;20502;-63
2022/10/28 05:25:19;;;;;;;69.40;27.60;;;;;;;14.43;100.00;101169.25;4953025;29;20046;-62
2022/10/28 05:27:45;;;;;;;62.17;28.05;;;;;;;14.60;100.00;101190.47;4935745;29;20176;-63
2022/10/28 05:30:11;;;;;;;66.80;28.02;;;;;;;14.59;100.00;101188.81;4935430;29;20043;-63
2022/10/28 05:32:37;;;;;;;68.82;27.55;;;;;;;14.61;100.00;101192.16;4936404;29;20031;-64
2022/10/28 05:35:03;;;;;;;73.22;28.85;;;;;;;14.61;100.00;101187.56;4952652;29;20110;-63
2022/10/28 05:37:28;;;;;;;65.28;28.98;;;;;;;14.60;100.00;101190.47;4935687;29;20039;-62
2022/10/28 05:39:53;;;;;;;67.57;27.63;;;;;;;14.59;100.00;101191.53;4935240;29;20035;-63
2022/10/28 05:42:21;;;;;;;69.90;29.48;;;;;;;14.42;100.00;101153.25;4953107;29;20038;-63
2022/10/28 05:44:46;;;;;;;72.00;27.92;;;;;;;14.57;100.00;101187.16;4936058;29;20036;-63
2022/10/28 05:47:12;;;;;;;64.82;27.58;;;;;;;14.57;100.00;101189.03;4935354;29;20071;-63
2022/10/28 05:49:37;;;;;;;64.40;27.05;;;;;;;14.55;100.00;101188.41;4935259;29;20050;-63
2022/10/28 05:52:03;;;;;;;65.70;28.80;;;;;;;14.61;100.00;101189.44;4952872;29;20102;-62
2022/10/28 05:54:28;;;;;;;65.35;27.90;;;;;;;14.63;100.00;101192.75;4935432;29;20118;-62
2022/10/28 05:56:53;;;;;;;66.38;27.23;;;;;;;14.60;100.00;101190.47;4935477;29;20035;-62
2022/10/28 05:59:19;;;;;;;64.03;26.75;;;;;;;14.63;100.00;101198.97;4952577;29;20043;-63
2022/10/28 06:01:44;;;;;;;66.55;26.80;;;;;;;14.60;100.00;101204.00;4954017;28;20105;-63
2022/10/28 06:04:10;;;;;;;65.20;26.88;;;;;;;14.62;100.00;101193.81;4955896;29;20042;-63
2022/10/28 06:06:35;;;;;;;60.17;25.42;;;;;;;14.65;100.00;101194.19;4955859;29;20529;-63
2022/10/28 06:09:00;;;;;;;58.40;25.52;;;;;;;14.64;100.00;101203.38;4955880;29;20075;-63
2022/10/28 06:11:26;;;;;;;54.35;23.58;;;;;;;14.67;100.00;101202.09;4955923;29;20494;-63
2022/10/28 06:13:51;;;;;;;63.72;23.52;;;;;;;14.71;100.00;101200.63;4955780;29;20038;-63
2022/10/28 06:16:17;;;;;;;50.20;22.58;;;;;;;14.72;100.00;101207.69;4955598;29;20031;-63
2022/10/28 06:18:42;;;;;;;44.40;19.10;;;;;;;14.65;100.00;101191.50;4938670;29;20049;-65
2022/10/28 06:21:08;;;;;;;35.67;17.52;;;;;;;14.75;100.00;101209.97;4955654;28;20110;-64
2022/10/28 06:23:33;;;;;;;41.65;18.67;;;;;;;14.74;100.00;101211.03;4955788;29;20129;-64
2022/10/28 06:26:01;;;;;;;34.85;17.05;;;;;;;14.70;100.00;101207.06;4938255;29;20050;-63
2022/10/28 06:28:27;;;;;;;34.15;17.58;;;;;;;14.57;100.00;101180.91;4956407;29;20054;-64
2022/10/28 06:30:52;;;;;;;45.85;18.67;;;;;;;14.79;100.00;101219.31;4955114;29;20137;-63
2022/10/28 06:33:18;;;;;;;46.33;20.50;;;;;;;14.78;100.00;101217.69;4938048;29;20579;-64
2022/10/28 06:35:43;;;;;;;53.53;21.30;;;;;;;14.78;100.00;101214.97;4937469;29;20046;-64
2022/10/28 06:38:10;;;;;;;53.08;21.98;;;;;;;14.77;100.00;101208.72;4937659;29;20035;-64
2022/10/28 06:40:35;;;;;;;48.55;20.15;;;;;;;14.77;100.00;101222.28;4955072;29;20035;-64
2022/10/28 06:43:06;;;;;;;55.45;20.05;;;;;;;14.78;100.00;101225.81;4938056;29;20042;-64
2022/10/28 06:45:33;;;;;;;50.45;19.55;;;;;;;14.77;100.00;101229.56;4938087;29;20038;-64
2022/10/28 06:48:03;;;;;;;52.05;18.65;;;;;;;14.76;100.00;101231.41;4920518;29;20102;-64
2022/10/28 06:50:29;;;;;;;52.30;18.00;;;;;;;14.65;100.00;101210.44;4953134;29;20463;-64
2022/10/28 06:52:56;;;;;;;56.35;19.08;;;;;;;14.60;100.00;101209.41;4952971;29;20512;-64
2022/10/28 06:55:22;;;;;;;56.88;16.95;;;;;;;14.82;100.00;101234.31;4935586;29;20042;-64
2022/10/28 06:57:51;;;;;;;42.13;15.25;;;;;;;14.80;100.00;101246.22;4935609;29;20498;-64
2022/10/28 07:00:16;;;;;;;43.28;14.43;;;;;;;14.83;100.00;101249.53;4935398;29;20122;-64
2022/10/28 07:02:42;;;;;;;42.08;14.95;;;;;;;14.79;100.00;101254.53;4954062;29;20130;-64
2022/10/28 07:05:08;;;;;;;41.58;14.35;;;;;;;14.82;100.00;101254.13;4937773;29;20108;-65
2022/10/28 07:07:36;;;;;;;46.35;14.93;;;;;;;14.83;100.00;101266.59;4954810;29;20049;-63
2022/10/28 07:10:03;;;;;;;45.55;14.65;;;;;;;14.86;100.00;101271.59;4939211;29;20027;-64
2022/10/28 07:12:28;;;;;;;44.90;14.30;;;;;;;14.86;100.00;101270.78;4953626;28;20113;-64
2022/10/28 07:14:54;;;;;;;40.78;12.95;;;;;;;14.86;100.00;101273.47;4937350;29;20118;-64
2022/10/28 07:17:19;;;;;;;44.58;13.30;;;;;;;14.85;100.00;101266.41;4937282;29;20452;-64
2022/10/28 07:19:44;;;;;;;44.33;13.38;;;;;;;14.93;100.00;101268.84;4937047;29;20122;-64
2022/10/28 07:22:10;;;;;;;38.28;12.63;;;;;;;14.95;100.00;101267.59;4937309;29;20125;-64
2022/10/28 07:24:35;;;;;;;39.90;12.85;;;;;;;14.98;100.00;101275.28;4954503;29;20119;-62
2022/10/28 07:27:00;;;;;;;40.60;12.93;;;;;;;14.99;100.00;101276.13;4954347;29;20031;-63
2022/10/28 07:29:26;;;;;;;30.92;11.40;;;;;;;15.00;100.00;101280.50;4937133;29;20113;-64
2022/10/28 07:31:54;;;;;;;33.30;11.45;;;;;;;14.88;100.00;101263.28;4953915;29;20078;-63
2022/10/28 07:34:20;;;;;;;36.78;12.13;;;;;;;14.99;100.00;101281.53;4954153;29;20055;-63
2022/10/28 07:36:50;;;;;;;39.65;12.48;;;;;;;14.91;100.00;101268.25;4954089;29;20065;-63
2022/10/28 07:39:15;;;;;;;37.55;11.05;;;;;;;14.91;100.00;101252.81;4954134;29;20083;-64
2022/10/28 07:41:41;;;;;;;33.22;11.85;;;;;;;15.06;100.00;101281.50;4953865;29;20078;-63
2022/10/28 07:44:06;;;;;;;44.08;12.65;;;;;;;14.90;100.00;101264.72;4953950;29;20038;-63
2022/10/28 07:46:32;;;;;;;40.20;11.60;;;;;;;14.86;100.00;101252.63;4936855;29;20486;-63
2022/10/28 07:48:58;;;;;;;35.63;11.63;;;;;;;15.06;100.00;101293.19;4953920;28;20027;-65
2022/10/28 07:51:23;;;;;;;34.97;10.63;;;;;;;15.02;100.00;101297.38;4936858;29;20524;-63
2022/10/28 07:53:49;;;;;;;39.05;11.50;;;;;;;14.99;100.00;101293.22;4953754;28;20482;-63
2022/10/28 07:56:15;;;;;;;35.63;11.27;;;;;;;14.90;100.00;101296.38;4953780;29;20034;-63
2022/10/28 07:58:42;;;;;;;40.90;10.90;;;;;;;14.90;100.00;101305.38;4953617;29;20138;-63
2022/10/28 08:01:09;;;;;;;41.25;10.25;;;;;;;14.84;100.00;101305.41;4953537;29;20046;-63
2022/10/28 08:03:35;;;;;;;35.58;10.65;;;;;;;14.89;100.00;101314.53;4953640;29;20483;-63
2022/10/28 08:06:09;;;;;;;37.08;10.50;;;;;;;14.90;100.00;101316.22;4953572;29;20102;-63
2022/10/28 08:08:38;;;;;;;34.42;10.38;;;;;;;14.89;100.00;101317.22;4953750;29;20541;-64
2022/10/28 08:11:11;;;;;;;35.78;10.85;;;;;;;14.91;100.00;101322.44;4953921;29;20495;-62
2022/10/28 08:13:36;;;;;;;38.88;10.55;;;;;;;14.82;100.00;101321.84;4953291;29;20031;-62
2022/10/28 08:16:01;;;;;;;44.03;11.30;;;;;;;14.78;100.00;101323.34;4936470;29;20449;-63
2022/10/28 08:18:27;;;;;;;36.00;11.02;;;;;;;14.82;100.00;101329.16;4936386;29;20061;-63
2022/10/28 08:20:52;;;;;;;38.28;11.30;;;;;;;14.75;100.00;101315.63;4917001;29;20054;-63
2022/10/28 08:23:18;;;;;;;37.83;10.48;;;;;;;14.77;100.00;101325.22;4947732;29;20035;-63
2022/10/28 08:25:51;;;;;;;38.80;11.98;;;;;;;14.84;100.00;101329.78;4953035;28;20538;-63
2022/10/28 08:28:16;;;;;;;34.63;10.63;;;;;;;14.84;100.00;101317.06;4936081;29;20042;-64
2022/10/28 08:30:46;;;;;;;36.72;10.30;;;;;;;14.85;100.00;101326.00;4953203;29;20067;-63
2022/10/28 08:33:12;;;;;;;37.60;10.93;;;;;;;14.82;100.00;101311.00;4936071;29;20035;-64
2022/10/28 08:35:38;;;;;;;31.60;10.88;;;;;;;14.72;100.00;101291.69;4953201;29;20039;-63
2022/10/28 08:38:04;;;;;;;34.22;11.35;;;;;;;14.89;100.00;101314.53;4936100;29;20086;-64
2022/10/28 08:41:11;;;;;;;43.22;11.73;;;;;;;14.90;100.00;101315.34;4935829;29;20039;-64
2022/10/28 08:43:59;;;;;;;28.33;10.57;;;;;;;14.93;100.00;101310.34;4906683;29;20101;-63
2022/10/28 08:46:43;;;;;;;37.10;10.50;;;;;;;14.96;100.00;101309.91;4952821;28;20046;-64
2022/10/28 08:49:12;;;;;;;39.42;11.77;;;;;;;14.99;100.00;101314.88;4953111;28;20490;-64
2022/10/28 08:51:49;;;;;;;31.60;10.32;;;;;;;14.99;100.00;101319.47;4952991;29;20087;-63
2022/10/28 08:54:30;;;;;;;30.90;11.20;;;;;;;14.99;100.00;101314.06;4952969;29;20030;-64
2022/10/28 08:56:59;;;;;;;36.53;11.02;;;;;;;15.01;100.00;101318.22;4947712;29;20114;-64
2022/10/28 08:59:35;;;;;;;31.25;10.18;;;;;;;14.87;100.00;101300.38;4952833;29;20442;-63
2022/10/28 09:02:21;;;;;;;35.30;11.02;;;;;;;15.06;100.00;101324.88;4937193;29;20050;-63
2022/10/28 09:05:01;;;;;;;27.52;10.07;;;;;;;15.06;100.00;101328.41;4952916;29;20082;-64
2022/10/28 09:07:27;;;;;;;32.95;10.85;;;;;;;15.13;100.00;101331.09;4935829;29;20035;-63
2022/10/28 09:09:53;;;;;;;41.22;11.50;;;;;;;15.16;100.00;101338.78;4952674;29;20046;-64
2022/10/28 09:12:28;;;;;;;35.70;10.38;;;;;;;15.14;100.00;101344.44;4953055;29;20414;-63
2022/10/28 09:15:25;;;;;;;38.75;10.57;;;;;;;15.11;100.00;101349.47;4952973;29;20410;-63
2022/10/28 09:17:57;;;;;;;33.63;11.10;;;;;;;14.92;100.00;101322.22;4916875;29;20502;-64
2022/10/28 09:20:41;;;;;;;40.63;11.80;;;;;;;15.05;100.00;101353.84;4952828;29;20027;-63
2022/10/28 09:23:32;;;;;;;33.07;10.53;;;;;;;15.01;100.00;101352.63;4952722;29;20123;-64
2022/10/28 09:26:36;;;;;;;33.10;9.98;;;;;;;15.00;100.00;101359.94;4952722;29;20390;-63
2022/10/28 09:29:29;;;;;;;34.63;10.35;;;;;;;15.02;100.00;101357.81;4952784;29;20070;-64
2022/10/28 09:32:05;;;;;;;28.00;9.70;;;;;;;15.03;100.00;101364.94;4935372;29;20554;-64
2022/10/28 09:34:39;;;;;;;35.65;9.85;;;;;;;15.09;100.00;101373.22;4952675;29;20121;-63
2022/10/28 09:37:27;;;;;;;34.25;9.27;;;;;;;15.10;100.00;101374.88;4954753;28;20062;-63
2022/10/28 09:39:58;;;;;;;38.97;9.38;;;;;;;15.12;100.00;101367.38;4956187;28;20039;-64
2022/10/28 09:42:33;;;;;;;25.27;8.68;;;;;;;15.07;100.00;101350.94;4956139;29;20106;-63
2022/10/28 09:45:10;;;;;;;23.85;7.75;;;;;;;15.13;100.00;101364.47;4940695;29;20038;-63
2022/10/28 09:47:44;;;;;;;37.25;8.60;;;;;;;15.17;100.00;101364.88;4938592;29;20035;-64
2022/10/28 09:50:19;;;;;;;24.13;8.05;;;;;;;15.17;100.00;101375.72;4924323;29;20101;-63
2022/10/28 09:52:53;;;;;;;29.65;9.02;;;;;;;15.16;100.00;101368.59;4955948;29;20043;-63
2022/10/28 09:55:24;;;;;;;26.40;7.63;;;;;;;15.09;100.00;101357.78;4956115;29;20573;-64
2022/10/28 09:57:49;;;;;;;25.13;7.53;;;;;;;15.16;100.00;101364.00;4955849;28;20152;-64
2022/10/28 10:00:16;;;;;;;26.23;7.72;;;;;;;15.17;100.00;101365.69;4938725;29;20178;-64
2022/10/28 10:02:42;;;;;;;25.35;7.32;;;;;;;15.18;100.00;101372.78;4955757;29;20031;-63
2022/10/28 10:05:23;;;;;;;26.27;7.97;;;;;;;15.13;100.00;101377.16;4955966;29;20046;-63
2022/10/28 10:07:59;;;;;;;25.92;8.00;;;;;;;15.10;100.00;101375.75;4955641;29;20037;-63
2022/10/28 10:10:30;;;;;;;28.00;8.40;;;;;;;15.08;100.00;101368.88;4955691;28;20023;-63
2022/10/28 10:12:58;;;;;;;21.83;7.63;;;;;;;15.09;100.00;101365.09;4955552;28;20035;-64
2022/10/28 10:15:36;;;;;;;26.60;8.40;;;;;;;15.07;100.00;101361.78;4955621;29;20031;-63
2022/10/28 10:18:03;;;;;;;29.67;8.23;;;;;;;15.03;100.00;101356.78;4939781;29;20027;-63
2022/10/28 10:20:51;;;;;;;20.42;8.02;;;;;;;14.97;100.00;101351.41;4955641;29;20040;-63
2022/10/28 10:23:30;;;;;;;24.80;8.02;;;;;;;14.99;100.00;101358.25;4938210;29;20122;-64
2022/10/28 10:26:16;;;;;;;25.42;8.02;;;;;;;14.98;100.00;101351.19;4955350;28;20062;-66
2022/10/28 10:28:47;;;;;;;17.05;7.20;;;;;;;14.96;100.00;101350.53;4896071;29;20082;-64
2022/10/28 10:31:25;;;;;;;17.50;7.18;;;;;;;14.96;100.00;101347.84;4896032;29;20053;-63
2022/10/28 10:33:53;;;;;;;23.73;7.50;;;;;;;14.93;100.00;101348.28;4896042;29;20028;-64
2022/10/28 10:36:22;;;;;;;17.60;7.13;;;;;;;14.98;100.00;101353.88;4880409;29;20067;-63
2022/10/28 10:38:56;;;;;;;25.05;7.85;;;;;;;14.99;100.00;101352.81;4895972;29;20123;-63
2022/10/28 10:41:36;;;;;;;23.77;7.32;;;;;;;14.92;100.00;101349.31;4895893;29;20052;-63
2022/10/28 10:44:21;;;;;;;17.00;6.75;;;;;;;14.94;100.00;101355.38;4876797;29;20540;-63
2022/10/28 10:46:59;;;;;;;20.52;6.90;;;;;;;14.97;100.00;101340.56;4870107;29;20041;-63
2022/10/28 10:49:26;;;;;;;15.57;6.45;;;;;;;14.96;100.00;101337.00;4895896;29;20049;-63
2022/10/28 10:52:01;;;;;;;16.83;7.00;;;;;;;15.00;100.00;101334.72;4864553;29;20044;-63
2022/10/28 10:54:30;;;;;;;18.40;6.50;;;;;;;14.93;100.00;101326.63;4955032;29;20487;-64
2022/10/28 10:57:07;;;;;;;19.08;6.63;;;;;;;15.05;100.00;101348.44;4954862;29;20038;-64
2022/10/28 10:59:36;;;;;;;14.80;6.10;;;;;;;14.87;100.00;101318.50;4954840;29;20151;-64
2022/10/28 11:02:22;;;;;;;16.35;6.05;;;;;;;15.08;100.00;101349.88;4954616;29;20114;-63
2022/10/28 11:04:53;;;;;;;18.48;6.53;;;;;;;15.03;100.00;101358.66;4895349;29;20048;-63
2022/10/28 11:07:19;;;;;;;16.67;5.50;;;;;;;15.02;100.00;101365.94;4895620;29;20546;-63
2022/10/28 11:09:48;;;;;;;23.35;6.82;;;;;;;14.79;100.00;101335.81;4864524;29;20132;-63
2022/10/28 11:12:15;;;;;;;12.07;5.28;;;;;;;14.94;100.00;101376.22;4894942;29;20045;-63
2022/10/28 11:15:06;;;;;;;12.60;5.00;;;;;;;14.93;100.00;101379.94;4895536;29;20643;-63
2022/10/28 11:17:34;;;;;;;14.82;5.10;;;;;;;14.90;100.00;101364.97;4876641;29;20049;-64